NKS1010 KLAX-KLAS
Flight info
| Callsign | NKS1010 |
|---|---|
| Flight time | N/A |
| Altitude | 29000 |
| Route | ORCKA5 MISEN RNDRZ4 |
| Aircraft | A320/M-SDE3FGHIRWY/LB1 |
Departure
| Time | N/A |
|---|---|
| Airport | Los Angeles International Airport (KLAX) |
Arrival
| Time | 2026-05-03 20:31 |
|---|---|
| Airport | Harry Reid International Airport (KLAS) |
| Time | Latitude | Longitude | Altitude | Speed | Heading |
|---|---|---|---|---|---|
| 2026-05-03 20:15 | 35.84414 | -115.47469 | 13012 ft | 331 kts | 32° |
| 2026-05-03 20:15 | 35.86418 | -115.46060 | 13012 ft | 333 kts | 33° |
| 2026-05-03 20:15 | 35.88431 | -115.44643 | 13012 ft | 332 kts | 33° |
| 2026-05-03 20:15 | 35.90437 | -115.43232 | 13013 ft | 333 kts | 32° |
| 2026-05-03 20:16 | 35.92447 | -115.41820 | 13013 ft | 332 kts | 32° |
| 2026-05-03 20:16 | 35.94461 | -115.40415 | 12816 ft | 333 kts | 32° |
| 2026-05-03 20:16 | 35.96483 | -115.39007 | 12384 ft | 334 kts | 32° |
| 2026-05-03 20:16 | 35.98460 | -115.37533 | 12030 ft | 329 kts | 41° |
| 2026-05-03 20:17 | 36.00022 | -115.35539 | 11673 ft | 320 kts | 59° |
| 2026-05-03 20:17 | 36.01010 | -115.33147 | 11194 ft | 307 kts | 78° |
| 2026-05-03 20:17 | 36.01368 | -115.30612 | 10663 ft | 292 kts | 95° |
| 2026-05-03 20:17 | 36.01264 | -115.28212 | 10540 ft | 270 kts | 99° |
| 2026-05-03 20:18 | 36.01157 | -115.25970 | 10407 ft | 253 kts | 99° |
| 2026-05-03 20:18 | 36.01060 | -115.23839 | 10109 ft | 245 kts | 99° |
| 2026-05-03 20:18 | 36.00960 | -115.21740 | 9772 ft | 246 kts | 99° |
| 2026-05-03 20:18 | 36.00853 | -115.19630 | 9486 ft | 245 kts | 99° |
| 2026-05-03 20:19 | 36.00745 | -115.17553 | 9379 ft | 242 kts | 99° |
| 2026-05-03 20:19 | 36.00637 | -115.15485 | 9271 ft | 241 kts | 99° |
| 2026-05-03 20:19 | 36.00532 | -115.13428 | 9163 ft | 240 kts | 99° |
| 2026-05-03 20:19 | 36.00427 | -115.11372 | 9054 ft | 239 kts | 99° |
| 2026-05-03 20:20 | 36.00312 | -115.09310 | 8755 ft | 245 kts | 101° |
| 2026-05-03 20:20 | 36.00181 | -115.07226 | 8429 ft | 246 kts | 100° |
| 2026-05-03 20:20 | 36.00082 | -115.05144 | 8231 ft | 240 kts | 99° |
| 2026-05-03 20:20 | 36.00022 | -115.03122 | 8097 ft | 232 kts | 98° |
| 2026-05-03 20:21 | 35.99987 | -115.01149 | 8013 ft | 220 kts | 96° |
| 2026-05-03 20:21 | 35.99970 | -114.99311 | 8003 ft | 209 kts | 96° |
| 2026-05-03 20:21 | 35.99963 | -114.98132 | 7980 ft | 207 kts | 96° |
| 2026-05-03 20:21 | 35.99955 | -114.96361 | 7986 ft | 206 kts | 96° |
| 2026-05-03 20:22 | 35.99949 | -114.94018 | 7992 ft | 207 kts | 96° |
| 2026-05-03 20:22 | 35.99947 | -114.92251 | 7990 ft | 205 kts | 95° |
| 2026-05-03 20:22 | 35.99945 | -114.90489 | 7990 ft | 205 kts | 95° |
| 2026-05-03 20:22 | 35.99944 | -114.88732 | 7987 ft | 206 kts | 95° |
| 2026-05-03 20:23 | 35.99943 | -114.87541 | 7903 ft | 205 kts | 96° |
| 2026-05-03 20:23 | 35.99944 | -114.85780 | 7622 ft | 206 kts | 95° |
| 2026-05-03 20:23 | 35.99945 | -114.84023 | 7266 ft | 208 kts | 96° |
| 2026-05-03 20:23 | 35.99945 | -114.82203 | 6910 ft | 210 kts | 95° |
| 2026-05-03 20:24 | 35.99945 | -114.80412 | 6631 ft | 213 kts | 95° |
| 2026-05-03 20:24 | 35.99950 | -114.78586 | 6351 ft | 213 kts | 92° |
| 2026-05-03 20:24 | 36.00376 | -114.76795 | 6058 ft | 228 kts | 58° |
| 2026-05-03 20:24 | 36.01588 | -114.75511 | 5760 ft | 236 kts | 24° |
| 2026-05-03 20:25 | 36.03186 | -114.75211 | 5457 ft | 237 kts | 350° |
| 2026-05-03 20:25 | 36.04662 | -114.75993 | 5163 ft | 230 kts | 315° |
| 2026-05-03 20:25 | 36.05694 | -114.77448 | 4994 ft | 220 kts | 302° |
| 2026-05-03 20:25 | 36.06564 | -114.78940 | 4962 ft | 210 kts | 301° |
| 2026-05-03 20:26 | 36.07218 | -114.80513 | 4983 ft | 204 kts | 278° |
| 2026-05-03 20:26 | 36.07340 | -114.82218 | 4971 ft | 198 kts | 264° |
| 2026-05-03 20:26 | 36.07342 | -114.83925 | 4979 ft | 198 kts | 265° |
| 2026-05-03 20:26 | 36.07346 | -114.85618 | 4979 ft | 196 kts | 266° |
| 2026-05-03 20:27 | 36.07349 | -114.87299 | 4975 ft | 196 kts | 265° |
| 2026-05-03 20:27 | 36.07351 | -114.89009 | 4969 ft | 200 kts | 264° |
| 2026-05-03 20:27 | 36.07354 | -114.90729 | 4977 ft | 200 kts | 265° |
| 2026-05-03 20:27 | 36.07357 | -114.92426 | 4972 ft | 197 kts | 265° |
| 2026-05-03 20:28 | 36.07358 | -114.94132 | 4862 ft | 198 kts | 266° |
| 2026-05-03 20:28 | 36.07360 | -114.95835 | 4630 ft | 197 kts | 265° |
| 2026-05-03 20:28 | 36.07362 | -114.97509 | 4393 ft | 194 kts | 264° |
| 2026-05-03 20:28 | 36.07363 | -114.99189 | 4145 ft | 193 kts | 263° |
| 2026-05-03 20:29 | 36.07366 | -115.00817 | 3916 ft | 186 kts | 263° |
| 2026-05-03 20:29 | 36.07365 | -115.02427 | 3698 ft | 188 kts | 264° |
| 2026-05-03 20:29 | 36.07367 | -115.04028 | 3459 ft | 182 kts | 262° |
| 2026-05-03 20:29 | 36.07369 | -115.05549 | 3239 ft | 173 kts | 261° |
| 2026-05-03 20:30 | 36.07369 | -115.06975 | 3035 ft | 157 kts | 265° |
| 2026-05-03 20:30 | 36.07366 | -115.08283 | 2839 ft | 151 kts | 266° |
| 2026-05-03 20:30 | 36.07365 | -115.09560 | 2611 ft | 147 kts | 269° |
| 2026-05-03 20:30 | 36.07359 | -115.10789 | 2405 ft | 143 kts | 271° |
| 2026-05-03 20:31 | 36.07365 | -115.12015 | 2205 ft | 142 kts | 275° |
| 2026-05-03 20:31 | 36.07364 | -115.13224 | 2081 ft | 133 kts | 274° |
| 2026-05-03 20:31 | 36.07365 | -115.14179 | 2107 ft | 88 kts | 270° |
| 2026-05-03 20:31 | 36.07368 | -115.14718 | 2123 ft | 38 kts | 273° |
| 2026-05-03 20:32 | 36.07436 | -115.14963 | 2128 ft | 24 kts | 296° |
| 2026-05-03 20:32 | 36.07496 | -115.15093 | 2128 ft | 15 kts | 310° |
| 2026-05-03 20:32 | 36.07575 | -115.15164 | 2131 ft | 14 kts | 336° |
| 2026-05-03 20:32 | 36.07664 | -115.15211 | 2133 ft | 14 kts | 338° |
| 2026-05-03 20:33 | 36.07757 | -115.15261 | 2134 ft | 15 kts | 335° |
| 2026-05-03 20:33 | 36.07852 | -115.15315 | 2136 ft | 15 kts | 335° |
| 2026-05-03 20:33 | 36.07960 | -115.15377 | 2136 ft | 19 kts | 335° |
| 2026-05-03 20:33 | 36.08089 | -115.15451 | 2133 ft | 21 kts | 335° |
| 2026-05-03 20:34 | 36.08236 | -115.15536 | 2127 ft | 26 kts | 335° |
| 2026-05-03 20:34 | 36.08401 | -115.15628 | 2124 ft | 22 kts | 335° |
| 2026-05-03 20:34 | 36.08506 | -115.15643 | 2120 ft | 16 kts | 41° |
| 2026-05-03 20:34 | 36.08583 | -115.15590 | 2115 ft | 6 kts | 25° |
| 2026-05-03 20:35 | 36.08641 | -115.15553 | 2113 ft | 11 kts | 31° |
| 2026-05-03 20:35 | 36.08609 | -115.15488 | 2115 ft | 10 kts | 148° |
| 2026-05-03 20:35 | 36.08576 | -115.15461 | 2118 ft | 3 kts | 146° |
| 2026-05-03 20:35 | 36.08574 | -115.15459 | 2118 ft | 0 kts | 147° |